createdAt,value
2022-10-14T00:00:50.758Z,21.15
2022-10-14T00:03:18.845Z,20.20
2022-10-14T00:05:46.915Z,19.63
2022-10-14T00:08:16.264Z,29.52
2022-10-14T00:10:44.407Z,23.55
2022-10-14T00:13:12.440Z,22.42
2022-10-14T00:15:41.375Z,26.52
2022-10-14T00:18:10.162Z,29.50
2022-10-14T00:20:38.142Z,24.50
2022-10-14T00:23:06.101Z,33.92
2022-10-14T00:25:39.283Z,25.95
2022-10-14T00:28:07.337Z,21.42
2022-10-14T00:30:35.265Z,27.63
2022-10-14T00:33:03.377Z,26.23
2022-10-14T00:35:32.359Z,30.90
2022-10-14T00:38:00.709Z,28.38
2022-10-14T00:40:28.732Z,34.80
2022-10-14T00:42:57.964Z,29.25
2022-10-14T00:45:27.218Z,31.17
2022-10-14T00:47:55.230Z,34.17
2022-10-14T00:50:23.222Z,30.77
2022-10-14T00:52:51.904Z,31.00
2022-10-14T00:55:20.760Z,32.45
2022-10-14T00:57:48.632Z,33.03
2022-10-14T01:00:20.196Z,30.67
2022-10-14T01:02:50.307Z,42.78
2022-10-14T01:05:20.341Z,35.63
2022-10-14T01:08:00.795Z,32.60
2022-10-14T01:10:38.808Z,35.00
2022-10-14T01:13:18.845Z,30.42
2022-10-14T01:15:56.685Z,38.17
2022-10-14T01:18:44.223Z,34.78
2022-10-14T01:21:19.097Z,42.00
2022-10-14T01:24:29.177Z,36.40
2022-10-14T01:27:20.934Z,41.92
2022-10-14T01:30:12.226Z,35.63
2022-10-14T01:32:50.180Z,41.85
2022-10-14T01:35:28.905Z,38.03
2022-10-14T01:38:00.919Z,39.92
2022-10-14T01:40:34.385Z,38.70
2022-10-14T01:43:05.237Z,37.13
2022-10-14T01:45:37.887Z,38.38
2022-10-14T01:48:07.499Z,39.97
2022-10-14T01:50:37.884Z,35.40
2022-10-14T01:53:09.306Z,34.55
2022-10-14T01:55:41.274Z,36.78
2022-10-14T01:58:11.160Z,37.20
2022-10-14T02:00:40.399Z,39.83
2022-10-14T02:03:08.292Z,38.38
2022-10-14T02:05:39.877Z,37.30
2022-10-14T02:08:13.181Z,33.38
2022-10-14T02:11:05.674Z,45.20
2022-10-14T02:13:46.063Z,48.58
2022-10-14T02:16:25.169Z,34.28
2022-10-14T02:19:01.130Z,36.65
2022-10-14T02:21:35.615Z,38.50
2022-10-14T02:24:08.657Z,35.05
2022-10-14T02:26:38.155Z,43.65
2022-10-14T02:29:07.172Z,41.47
2022-10-14T02:31:39.366Z,40.20
2022-10-14T02:34:11.591Z,36.28
2022-10-14T02:36:41.925Z,44.92
2022-10-14T02:39:14.105Z,36.10
2022-10-14T02:41:42.614Z,43.75
2022-10-14T02:44:10.469Z,38.33
2022-10-14T02:46:40.696Z,39.75
2022-10-14T02:49:08.902Z,37.83
2022-10-14T02:51:36.817Z,39.88
2022-10-14T02:54:04.918Z,40.03
2022-10-14T02:56:32.897Z,40.78
2022-10-14T02:59:00.852Z,43.47
2022-10-14T03:01:29.980Z,43.25
2022-10-14T03:04:01.009Z,40.08
2022-10-14T03:06:29.025Z,40.80
2022-10-14T03:08:56.904Z,45.10
2022-10-14T03:11:24.910Z,40.40
2022-10-14T03:13:52.835Z,37.55
2022-10-14T03:16:20.666Z,39.28
2022-10-14T03:18:48.712Z,43.58
2022-10-14T03:21:18.103Z,40.60
2022-10-14T03:23:45.938Z,43.85
2022-10-14T03:26:14.273Z,43.95
2022-10-14T03:28:42.423Z,52.05
2022-10-14T03:31:10.302Z,48.40
2022-10-14T03:33:38.399Z,46.97
2022-10-14T03:36:06.630Z,42.25
2022-10-14T03:38:35.941Z,38.72
2022-10-14T03:41:03.996Z,40.40
2022-10-14T03:43:32.129Z,44.67
2022-10-14T03:45:59.964Z,38.90
2022-10-14T03:48:27.973Z,38.22
2022-10-14T03:50:55.891Z,38.00
2022-10-14T03:53:23.718Z,34.15
2022-10-14T03:55:53.288Z,40.47
2022-10-14T03:58:21.252Z,38.83
2022-10-14T04:00:49.174Z,38.13
2022-10-14T04:03:17.212Z,40.60
2022-10-14T04:05:45.215Z,33.03
2022-10-14T04:08:13.065Z,37.33
2022-10-14T04:10:40.994Z,36.80
2022-10-14T04:13:10.329Z,35.05
2022-10-14T04:15:40.018Z,35.45
2022-10-14T04:18:07.962Z,35.28
2022-10-14T04:20:35.870Z,41.47
2022-10-14T04:23:03.713Z,41.42
2022-10-14T04:25:31.765Z,42.03
2022-10-14T04:27:59.733Z,36.78
2022-10-14T04:30:29.017Z,39.50
2022-10-14T04:32:57.017Z,39.28
2022-10-14T04:35:25.030Z,42.00
2022-10-14T04:37:52.898Z,33.33
2022-10-14T04:40:25.795Z,38.30
2022-10-14T04:42:57.367Z,34.28
2022-10-14T04:45:26.446Z,39.83
2022-10-14T04:47:55.724Z,42.20
2022-10-14T04:50:23.594Z,38.47
2022-10-14T04:52:51.759Z,37.50
2022-10-14T04:55:19.587Z,33.55
2022-10-14T04:57:47.566Z,30.77
2022-10-14T05:00:16.879Z,38.63
2022-10-14T05:02:44.827Z,33.50
2022-10-14T05:05:14.960Z,32.03
2022-10-14T05:07:43.418Z,32.13
2022-10-14T05:10:11.465Z,36.05
2022-10-14T05:12:40.193Z,30.77
2022-10-14T05:15:08.791Z,34.55
2022-10-14T05:17:37.717Z,35.10
2022-10-14T05:20:06.409Z,38.05
2022-10-14T05:22:35.789Z,34.88
2022-10-14T05:25:03.678Z,32.03
2022-10-14T05:27:31.622Z,36.38
2022-10-14T05:29:59.628Z,35.72
2022-10-14T05:32:27.497Z,32.85
2022-10-14T05:34:55.360Z,33.55
2022-10-14T05:37:23.413Z,32.30
2022-10-14T05:39:52.626Z,34.50
2022-10-14T05:42:20.843Z,32.70
2022-10-14T05:44:48.998Z,33.20
2022-10-14T05:47:16.826Z,35.25
2022-10-14T05:49:44.658Z,33.45
2022-10-14T05:52:12.758Z,30.80
2022-10-14T05:54:40.599Z,32.30
2022-10-14T05:57:09.877Z,40.00
2022-10-14T05:59:38.081Z,35.17
2022-10-14T06:02:05.940Z,34.40
2022-10-14T06:04:33.873Z,34.45
2022-10-14T06:07:01.955Z,39.30
2022-10-14T06:09:32.049Z,40.22
2022-10-14T06:11:59.926Z,40.58
2022-10-14T06:14:29.483Z,34.10
2022-10-14T06:16:57.412Z,32.28
2022-10-14T06:19:25.359Z,35.45
2022-10-14T06:21:53.545Z,32.33
2022-10-14T06:24:21.366Z,38.88
2022-10-14T06:26:49.548Z,36.90
2022-10-14T06:29:18.170Z,30.52
2022-10-14T06:31:47.436Z,33.13
2022-10-14T06:34:15.243Z,30.15
2022-10-14T06:36:43.891Z,28.60
2022-10-14T06:39:12.014Z,27.90
2022-10-14T06:41:39.883Z,28.42
2022-10-14T06:44:07.885Z,31.23
2022-10-14T06:46:35.692Z,29.75
2022-10-14T06:49:04.957Z,22.05
2022-10-14T06:51:32.935Z,25.38
2022-10-14T06:54:00.802Z,25.15
2022-10-14T06:56:28.705Z,24.55
2022-10-14T06:58:57.091Z,21.55
2022-10-14T07:01:25.103Z,22.58
2022-10-14T07:03:55.885Z,21.73
2022-10-14T07:06:26.305Z,25.10
2022-10-14T07:08:54.460Z,22.80
2022-10-14T07:11:22.293Z,19.73
2022-10-14T07:13:50.319Z,20.80
2022-10-14T07:16:18.161Z,21.70
2022-10-14T07:18:46.069Z,17.45
2022-10-14T07:21:14.319Z,15.70
2022-10-14T07:23:43.508Z,16.80
2022-10-14T07:26:11.423Z,12.48
2022-10-14T07:28:39.691Z,13.75
2022-10-14T07:31:09.720Z,12.13
2022-10-14T07:33:39.162Z,14.73
2022-10-14T07:36:10.199Z,14.60
2022-10-14T07:38:38.644Z,11.45
2022-10-14T07:41:17.002Z,12.07
2022-10-14T07:43:45.535Z,12.82
2022-10-14T07:46:14.823Z,12.32
2022-10-14T07:48:56.839Z,10.55
2022-10-14T07:51:26.007Z,10.48
2022-10-14T07:53:54.454Z,15.25
2022-10-14T07:56:24.272Z,10.80
2022-10-14T07:58:52.644Z,11.70
2022-10-14T08:01:20.867Z,12.65
2022-10-14T08:03:49.921Z,10.43
2022-10-14T08:06:18.391Z,10.93
2022-10-14T08:08:46.833Z,13.68
2022-10-14T08:11:17.272Z,9.98
2022-10-14T08:13:47.371Z,12.88
2022-10-14T08:16:17.942Z,8.32
2022-10-14T08:18:46.994Z,11.00
2022-10-14T08:21:16.019Z,13.77
2022-10-14T08:23:44.189Z,13.68
2022-10-14T08:26:23.678Z,10.18
2022-10-14T08:28:53.287Z,9.02
2022-10-14T08:31:22.276Z,11.70
2022-10-14T08:33:50.682Z,10.55
2022-10-14T08:36:19.600Z,11.27
2022-10-14T08:38:47.721Z,14.75
2022-10-14T08:41:27.251Z,11.88
2022-10-14T08:44:11.513Z,12.65
2022-10-14T08:46:48.066Z,9.65
2022-10-14T08:49:26.083Z,11.88
2022-10-14T08:51:59.907Z,10.30
2022-10-14T08:54:36.110Z,8.60
2022-10-14T08:57:05.359Z,10.55
2022-10-14T08:59:41.262Z,11.45
2022-10-14T09:02:22.871Z,9.07
2022-10-14T09:04:51.360Z,9.43
2022-10-14T09:07:21.164Z,12.32
2022-10-14T09:09:52.398Z,8.98
2022-10-14T09:12:25.385Z,7.25
2022-10-14T09:15:04.483Z,9.43
2022-10-14T09:17:38.319Z,12.88
2022-10-14T09:20:18.122Z,12.93
2022-10-14T09:22:48.400Z,9.75
2022-10-14T09:25:17.824Z,11.00
2022-10-14T09:30:18.271Z,10.73
2022-10-14T09:32:49.829Z,11.93
2022-10-14T09:35:24.617Z,13.15
2022-10-14T09:37:53.219Z,13.20
2022-10-14T09:40:29.902Z,12.82
2022-10-14T09:43:01.868Z,15.30
2022-10-14T09:45:47.102Z,11.32
2022-10-14T09:48:18.631Z,9.95
2022-10-14T09:50:51.932Z,9.82
2022-10-14T09:53:26.584Z,15.77
2022-10-14T09:55:56.818Z,11.77
2022-10-14T09:58:31.273Z,9.30
2022-10-14T10:01:01.974Z,12.20
2022-10-14T10:03:33.906Z,9.82
2022-10-14T10:06:05.511Z,8.23
2022-10-14T10:08:35.010Z,10.13
2022-10-14T10:11:07.010Z,10.13
2022-10-14T10:13:39.564Z,9.70
2022-10-14T10:16:20.610Z,7.45
2022-10-14T10:18:48.928Z,10.20
2022-10-14T10:21:20.131Z,10.55
2022-10-14T10:23:53.972Z,11.98
2022-10-14T10:26:26.068Z,10.15
2022-10-14T10:28:58.856Z,6.80
2022-10-14T10:31:58.090Z,8.07
2022-10-14T10:34:54.895Z,12.10
2022-10-14T10:37:28.746Z,8.93
2022-10-14T10:40:11.741Z,10.90
2022-10-14T10:42:51.531Z,11.07
2022-10-14T10:45:35.583Z,7.97
2022-10-14T10:48:16.492Z,7.97
2022-10-14T10:50:49.553Z,10.65
2022-10-14T10:53:33.680Z,9.20
2022-10-14T10:56:13.969Z,12.65
2022-10-14T10:58:49.791Z,7.57
2022-10-14T11:01:36.955Z,9.40
2022-10-14T11:04:23.191Z,9.68
2022-10-14T11:07:17.463Z,11.68
2022-10-14T11:10:15.620Z,6.93
2022-10-14T11:12:54.852Z,10.40
2022-10-14T11:15:38.840Z,10.90
2022-10-14T11:18:12.988Z,7.50
2022-10-14T11:21:01.750Z,10.13
2022-10-14T11:23:54.659Z,6.63
2022-10-14T11:29:19.406Z,9.10
2022-10-14T11:31:54.855Z,9.07
2022-10-14T11:34:34.693Z,9.57
2022-10-14T11:37:11.375Z,10.02
2022-10-14T11:39:43.762Z,15.50
2022-10-14T11:42:25.102Z,8.25
2022-10-14T11:45:09.394Z,8.60
2022-10-14T11:47:41.780Z,6.75
2022-10-14T11:50:17.848Z,8.70
2022-10-14T11:52:56.110Z,7.93
2022-10-14T11:55:25.539Z,9.50
2022-10-14T11:57:58.304Z,7.47
2022-10-14T12:01:03.511Z,7.55
2022-10-14T12:03:46.735Z,6.18
2022-10-14T12:06:20.244Z,10.05
2022-10-14T12:08:55.597Z,9.80
2022-10-14T12:11:30.877Z,8.27
2022-10-14T12:14:07.350Z,9.57
2022-10-14T12:16:35.316Z,7.90
2022-10-14T12:19:03.427Z,9.82
2022-10-14T12:21:36.642Z,10.57
2022-10-14T12:24:10.064Z,9.13
2022-10-14T12:26:50.366Z,8.27
2022-10-14T12:29:21.653Z,10.10
2022-10-14T12:31:52.909Z,7.20
2022-10-14T12:34:34.802Z,8.25
2022-10-14T12:37:43.191Z,7.28
2022-10-14T12:40:27.740Z,11.63
2022-10-14T12:43:17.021Z,8.00
2022-10-14T12:45:52.120Z,8.70
2022-10-14T12:48:23.550Z,7.65
2022-10-14T12:51:08.981Z,6.47
2022-10-14T12:53:39.209Z,6.22
2022-10-14T12:56:08.801Z,8.00
2022-10-14T12:58:40.111Z,7.57
2022-10-14T13:01:17.851Z,8.70
2022-10-14T13:03:48.643Z,9.25
2022-10-14T13:06:36.395Z,8.60
2022-10-14T13:09:35.915Z,10.63
2022-10-14T13:12:43.987Z,6.75
2022-10-14T13:15:48.710Z,8.93
2022-10-14T13:18:49.297Z,6.55
2022-10-14T13:21:54.209Z,7.95
2022-10-14T13:24:28.739Z,10.35
2022-10-14T13:27:08.896Z,8.95
2022-10-14T13:29:53.985Z,12.55
2022-10-14T13:32:31.561Z,6.78
2022-10-14T13:35:12.588Z,8.77
2022-10-14T13:37:45.946Z,8.27
2022-10-14T13:40:22.762Z,6.03
2022-10-14T13:42:53.299Z,6.07
2022-10-14T13:45:25.325Z,13.70
2022-10-14T13:47:55.387Z,6.72
2022-10-14T13:50:27.013Z,8.95
2022-10-14T13:52:58.170Z,9.10
2022-10-14T13:55:28.531Z,8.02
2022-10-14T13:58:13.268Z,6.30
2022-10-14T14:00:46.894Z,8.15
2022-10-14T14:03:24.393Z,6.72
2022-10-14T14:05:53.714Z,9.48
2022-10-14T14:08:42.247Z,7.97
2022-10-14T14:11:19.261Z,12.43
2022-10-14T14:13:57.529Z,8.95
2022-10-14T14:16:33.313Z,10.77
2022-10-14T14:19:08.891Z,6.75
2022-10-14T14:21:38.019Z,9.77
2022-10-14T14:24:16.766Z,11.25
2022-10-14T14:26:45.663Z,8.85
2022-10-14T14:29:20.262Z,9.35
2022-10-14T14:34:40.652Z,12.52
2022-10-14T14:39:58.934Z,7.93
2022-10-14T14:42:29.292Z,8.93
2022-10-14T14:45:02.469Z,9.25
2022-10-14T14:47:31.903Z,7.43
2022-10-14T14:50:29.915Z,7.07
2022-10-14T14:52:52.570Z,8.95
2022-10-14T14:55:38.427Z,7.18
2022-10-14T14:58:15.246Z,10.32
2022-10-14T15:00:46.686Z,11.63
2022-10-14T15:03:14.788Z,9.63
2022-10-14T15:05:51.004Z,11.23
2022-10-14T15:08:23.887Z,11.18
2022-10-14T15:10:53.987Z,9.65
2022-10-14T15:13:32.234Z,8.77
2022-10-14T15:16:00.605Z,10.65
2022-10-14T15:18:30.475Z,8.75
2022-10-14T15:21:19.058Z,12.32
2022-10-14T15:24:03.221Z,11.40
2022-10-14T15:26:34.563Z,12.73
2022-10-14T15:29:13.301Z,12.23
2022-10-14T15:31:42.898Z,9.13
2022-10-14T15:34:18.641Z,10.60
2022-10-14T15:36:51.112Z,12.85
2022-10-14T15:39:19.582Z,13.32
2022-10-14T15:41:47.520Z,10.35
2022-10-14T15:44:15.955Z,13.90
2022-10-14T15:47:03.457Z,10.75
2022-10-14T15:49:33.797Z,13.95
2022-10-14T15:52:03.272Z,13.50
2022-10-14T15:54:31.156Z,14.60
2022-10-14T15:56:59.609Z,13.38
2022-10-14T15:59:27.694Z,12.27
2022-10-14T16:01:56.007Z,12.70
2022-10-14T16:04:28.032Z,12.75
2022-10-14T16:06:58.037Z,11.77
2022-10-14T16:09:28.750Z,15.30
2022-10-14T16:11:59.560Z,12.65
2022-10-14T16:14:28.139Z,14.77
2022-10-14T16:16:56.440Z,9.57
2022-10-14T16:19:24.700Z,11.73
2022-10-14T16:21:52.559Z,12.57
2022-10-14T16:24:22.376Z,15.27
2022-10-14T16:26:51.747Z,12.23
2022-10-14T16:29:20.431Z,10.85
2022-10-14T16:31:50.223Z,14.35
2022-10-14T16:34:18.851Z,14.60
2022-10-14T16:36:47.068Z,13.18
2022-10-14T16:39:15.068Z,13.05
2022-10-14T16:41:43.068Z,13.27
2022-10-14T16:44:24.814Z,14.77
2022-10-14T16:47:11.235Z,12.52
2022-10-14T16:49:40.060Z,12.07
2022-10-14T16:52:08.707Z,14.25
2022-10-14T16:54:36.647Z,15.00
2022-10-14T16:57:04.816Z,15.38
2022-10-14T16:59:34.321Z,12.40
2022-10-14T17:02:02.178Z,15.15
2022-10-14T17:04:30.145Z,15.00
2022-10-14T17:06:58.105Z,14.52
2022-10-14T17:09:26.044Z,14.43
2022-10-14T17:11:54.960Z,16.90
2022-10-14T17:14:24.354Z,14.85
2022-10-14T17:16:53.574Z,17.10
2022-10-14T17:19:24.269Z,13.73
2022-10-14T17:21:52.346Z,15.52
2022-10-14T17:24:20.213Z,15.57
2022-10-14T17:26:48.331Z,18.33
2022-10-14T17:29:16.385Z,16.20
2022-10-14T17:31:44.972Z,16.02
2022-10-14T17:34:14.358Z,19.77
2022-10-14T17:36:42.630Z,17.30
2022-10-14T17:39:21.284Z,20.52
2022-10-14T17:41:55.734Z,16.52
2022-10-14T17:44:23.743Z,18.80
2022-10-14T17:46:53.356Z,17.67
2022-10-14T17:49:22.812Z,17.58
2022-10-14T17:51:50.793Z,18.60
2022-10-14T17:54:18.625Z,21.77
2022-10-14T17:56:46.686Z,21.38
2022-10-14T17:59:14.684Z,18.90
2022-10-14T18:02:01.451Z,17.92
2022-10-14T18:04:33.400Z,22.27
2022-10-14T18:07:01.395Z,19.88
2022-10-14T18:09:29.281Z,23.08
2022-10-14T18:12:13.421Z,21.23
2022-10-14T18:14:42.263Z,19.77
2022-10-14T18:17:12.998Z,20.95
2022-10-14T18:19:51.143Z,19.80
2022-10-14T18:22:20.604Z,21.23
2022-10-14T18:24:48.406Z,22.10
2022-10-14T18:27:16.342Z,21.30
2022-10-14T18:29:44.422Z,22.10
2022-10-14T18:32:12.263Z,21.05
2022-10-14T18:34:40.112Z,23.70
2022-10-14T18:37:09.666Z,22.85
2022-10-14T18:39:37.784Z,26.75
2022-10-14T18:42:07.459Z,22.45
2022-10-14T18:44:35.543Z,19.98
2022-10-14T18:47:03.350Z,22.65
2022-10-14T18:49:38.166Z,25.05
2022-10-14T18:52:10.620Z,25.25
2022-10-14T18:54:43.260Z,22.77
2022-10-14T18:57:15.062Z,20.40
2022-10-14T18:59:45.494Z,19.15
2022-10-14T19:02:14.841Z,21.55
2022-10-14T19:04:42.787Z,25.30
2022-10-14T19:07:12.005Z,22.17
2022-10-14T19:09:39.947Z,23.23
2022-10-14T19:12:22.226Z,23.63
2022-10-14T19:14:50.500Z,25.70
2022-10-14T19:17:18.337Z,27.35
2022-10-14T19:19:46.243Z,24.63
2022-10-14T19:22:15.860Z,23.30
2022-10-14T19:24:43.818Z,22.65
2022-10-14T19:27:12.012Z,23.92
2022-10-14T19:29:40.041Z,22.95
2022-10-14T19:32:07.947Z,18.88
2022-10-14T19:34:35.880Z,20.27
2022-10-14T19:37:03.854Z,21.83
2022-10-14T19:39:33.066Z,21.40
2022-10-14T19:42:00.985Z,21.25
2022-10-14T19:44:28.999Z,20.58
2022-10-14T19:46:56.886Z,20.27
2022-10-14T19:49:24.818Z,22.95
2022-10-14T19:51:52.740Z,21.88
2022-10-14T19:54:20.574Z,19.20
2022-10-14T19:56:49.972Z,19.23
2022-10-14T19:59:17.966Z,20.02
2022-10-14T20:01:45.917Z,22.13
2022-10-14T20:04:13.977Z,16.88
2022-10-14T20:06:43.129Z,19.52
2022-10-14T20:09:13.639Z,17.25
2022-10-14T20:11:41.948Z,21.00
2022-10-14T20:14:11.397Z,17.70
2022-10-14T20:16:39.229Z,19.45
2022-10-14T20:19:07.121Z,17.13
2022-10-14T20:21:35.022Z,20.23
2022-10-14T20:24:02.882Z,19.58
2022-10-14T20:26:31.062Z,19.25
2022-10-14T20:28:59.519Z,17.30
2022-10-14T20:31:28.839Z,15.80
2022-10-14T20:33:57.756Z,19.10
2022-10-14T20:36:25.907Z,18.67
2022-10-14T20:38:53.756Z,20.80
2022-10-14T20:41:23.258Z,21.17
2022-10-14T20:43:51.516Z,18.30
2022-10-14T20:46:21.850Z,18.50
2022-10-14T20:48:55.132Z,20.33
2022-10-14T20:51:23.667Z,17.40
2022-10-14T20:53:52.782Z,16.50
2022-10-14T20:56:22.464Z,20.75
2022-10-14T20:58:55.157Z,17.35
2022-10-14T21:01:23.670Z,19.98
2022-10-14T21:03:53.559Z,16.40
2022-10-14T21:06:23.351Z,16.58
2022-10-14T21:08:52.917Z,15.60
2022-10-14T21:11:23.450Z,17.02
2022-10-14T21:13:53.724Z,17.88
2022-10-14T21:16:23.950Z,17.30
2022-10-14T21:18:57.853Z,15.95
2022-10-14T21:21:27.680Z,16.95
2022-10-14T21:23:56.168Z,16.77
2022-10-14T21:26:25.308Z,16.38
2022-10-14T21:28:53.582Z,15.00
2022-10-14T21:31:21.641Z,14.15
2022-10-14T21:33:54.838Z,12.52
2022-10-14T21:36:24.471Z,12.82
2022-10-14T21:38:52.862Z,13.15
2022-10-14T21:41:20.937Z,11.73
2022-10-14T21:43:48.898Z,13.82
2022-10-14T21:46:17.611Z,15.93
2022-10-14T21:48:46.478Z,12.13
2022-10-14T21:51:16.735Z,12.23
2022-10-14T21:53:47.625Z,12.93
2022-10-14T21:56:16.928Z,13.13
2022-10-14T21:58:45.526Z,15.30
2022-10-14T22:01:16.207Z,12.18
2022-10-14T22:03:44.839Z,11.73
2022-10-14T22:06:15.140Z,11.70
2022-10-14T22:08:46.144Z,13.57
2022-10-14T22:11:17.253Z,16.10
2022-10-14T22:13:45.624Z,14.82
2022-10-14T22:16:14.183Z,13.00
2022-10-14T22:18:44.860Z,12.88
2022-10-14T22:21:12.832Z,17.85
2022-10-14T22:23:41.009Z,12.85
2022-10-14T22:26:12.929Z,14.35
2022-10-14T22:28:41.484Z,14.77
2022-10-14T22:31:11.748Z,14.82
2022-10-14T22:33:41.119Z,12.35
2022-10-14T22:36:10.458Z,14.68
2022-10-14T22:38:39.390Z,11.35
2022-10-14T22:41:08.206Z,10.02
2022-10-14T22:43:38.563Z,12.85
2022-10-14T22:46:08.716Z,11.80
2022-10-14T22:48:37.351Z,12.35
2022-10-14T22:51:07.172Z,13.88
2022-10-14T22:53:35.949Z,10.48
2022-10-14T22:56:04.665Z,11.40
2022-10-14T22:58:33.046Z,11.55
2022-10-14T23:01:08.486Z,12.35
2022-10-14T23:03:37.034Z,11.18
2022-10-14T23:06:06.615Z,10.75
2022-10-14T23:08:35.465Z,11.70
2022-10-14T23:11:04.710Z,13.15
2022-10-14T23:13:33.346Z,11.35
2022-10-14T23:16:03.120Z,11.68
2022-10-14T23:18:34.703Z,11.90
2022-10-14T23:21:09.090Z,12.70
2022-10-14T23:23:37.292Z,12.48
2022-10-14T23:26:05.277Z,13.82
2022-10-14T23:28:33.230Z,12.88
2022-10-14T23:31:01.231Z,14.38
2022-10-14T23:33:29.276Z,12.52
2022-10-14T23:36:04.362Z,13.68
2022-10-14T23:38:32.461Z,12.90
2022-10-14T23:41:02.641Z,15.07
2022-10-14T23:43:31.441Z,13.20
2022-10-14T23:45:59.900Z,13.25
2022-10-14T23:48:28.135Z,16.20
2022-10-14T23:50:56.719Z,14.80
2022-10-14T23:53:26.920Z,13.93
2022-10-14T23:55:55.560Z,14.02
2022-10-14T23:58:23.618Z,15.20
